Time;durP1;ratioP1;P1;durP2;ratioP2;P2;SDS_P1;SDS_P2;PMS_P1;PMS_P2;Temp;Humidity;BMP_temperature;BMP_pressure;BME280_temperature;BME280_humidity;BME280_pressure;Samples;Min_cycle;Max_cycle;Signal;HPM_P1;HPM_P2
2023/08/14 00:01:07;;;;;;;9.63;4.40;;;;;;;;;;5050871;28;20040;-45
2023/08/14 00:03:33;;;;;;;9.32;4.13;;;;;;;;;;5059179;28;20656;-45
2023/08/14 00:05:58;;;;;;;13.27;5.07;;;;;;;;;;5054630;28;21147;-45
2023/08/14 00:08:23;;;;;;;10.45;4.03;;;;;;;;;;5059436;28;20271;-45
2023/08/14 00:10:48;;;;;;;16.80;5.00;;;;;;;;;;5058053;28;20020;-46
2023/08/14 00:13:18;;;;;;;10.10;4.37;;;;;;;;;;5037760;28;20024;-45
2023/08/14 00:15:43;;;;;;;11.55;5.90;;;;;;;;;;5054476;28;20281;-45
2023/08/14 00:18:08;;;;;;;10.07;4.37;;;;;;;;;;5062080;28;20029;-45
2023/08/14 00:20:34;;;;;;;565.45;311.15;;;;;;;;;;5065384;28;20024;-46
2023/08/14 00:22:59;;;;;;;555.70;305.80;;;;;;;;;;5065078;28;20059;-45
2023/08/14 00:25:24;;;;;;;535.93;289.57;;;;;;;;;;5058523;28;20025;-45
2023/08/14 00:27:49;;;;;;;379.60;200.47;;;;;;;;;;5061703;28;20043;-45
2023/08/14 00:30:15;;;;;;;484.77;266.40;;;;;;;;;;5062814;28;20275;-46
2023/08/14 00:32:40;;;;;;;225.13;118.97;;;;;;;;;;5057170;28;20518;-45
2023/08/14 00:35:05;;;;;;;591.78;330.45;;;;;;;;;;5063043;28;20047;-46
2023/08/14 00:37:47;;;;;;;611.38;337.48;;;;;;;;;;5052941;28;20029;-46
2023/08/14 00:40:13;;;;;;;184.70;96.57;;;;;;;;;;5040471;28;20024;-45
2023/08/14 00:42:38;;;;;;;78.53;39.17;;;;;;;;;;5056699;28;20043;-45
2023/08/14 00:45:05;;;;;;;10.25;4.07;;;;;;;;;;5060816;28;20532;-46
2023/08/14 00:47:30;;;;;;;9.38;4.13;;;;;;;;;;5062179;28;21708;-45
2023/08/14 00:49:56;;;;;;;12.50;5.22;;;;;;;;;;5062904;28;20028;-46
2023/08/14 00:52:21;;;;;;;11.00;3.83;;;;;;;;;;5049698;28;20475;-46
2023/08/14 00:54:47;;;;;;;9.27;4.03;;;;;;;;;;5049126;28;20283;-46
2023/08/14 00:57:12;;;;;;;11.57;5.13;;;;;;;;;;5039380;28;20666;-45
2023/08/14 00:59:37;;;;;;;22.60;7.97;;;;;;;;;;5060169;28;20059;-45
2023/08/14 01:02:03;;;;;;;10.65;4.32;;;;;;;;;;5059222;28;20395;-45
2023/08/14 01:04:28;;;;;;;9.53;5.03;;;;;;;;;;5064266;28;20486;-45
2023/08/14 01:06:53;;;;;;;8.65;4.03;;;;;;;;;;5059970;28;20285;-45
2023/08/14 01:09:19;;;;;;;7.00;3.65;;;;;;;;;;5062468;28;20025;-45
2023/08/14 01:11:56;;;;;;;11.05;3.92;;;;;;;;;;5049373;28;21501;-45
2023/08/14 01:14:25;;;;;;;8.50;4.30;;;;;;;;;;5060452;28;20031;-46
2023/08/14 01:16:53;;;;;;;8.15;3.90;;;;;;;;;;5063981;28;20031;-46
2023/08/14 01:19:25;;;;;;;8.27;3.83;;;;;;;;;;5040835;28;20024;-45
2023/08/14 01:22:03;;;;;;;13.18;4.22;;;;;;;;;;5061407;28;20047;-46
2023/08/14 01:24:44;;;;;;;13.10;5.28;;;;;;;;;;5059558;28;20048;-46
2023/08/14 01:27:09;;;;;;;9.35;4.00;;;;;;;;;;5060470;28;20112;-45
2023/08/14 01:29:35;;;;;;;9.85;4.30;;;;;;;;;;5046739;28;20021;-46
2023/08/14 01:32:00;;;;;;;10.40;4.07;;;;;;;;;;5057094;28;20036;-46
2023/08/14 01:34:25;;;;;;;9.23;4.40;;;;;;;;;;5052445;28;20285;-46
2023/08/14 01:36:57;;;;;;;11.40;4.10;;;;;;;;;;5058014;28;20479;-45
2023/08/14 01:39:24;;;;;;;9.85;4.40;;;;;;;;;;5057820;28;20279;-46
2023/08/14 01:41:53;;;;;;;9.40;3.75;;;;;;;;;;5058372;28;20041;-46
2023/08/14 01:44:21;;;;;;;10.75;3.97;;;;;;;;;;5059564;28;20013;-45
2023/08/14 01:46:47;;;;;;;8.45;4.07;;;;;;;;;;5056885;28;20402;-45
2023/08/14 01:49:14;;;;;;;10.15;4.05;;;;;;;;;;5070030;28;20386;-46
2023/08/14 01:51:39;;;;;;;10.48;4.20;;;;;;;;;;5063805;28;20074;-45
2023/08/14 01:54:05;;;;;;;8.32;4.60;;;;;;;;;;5056040;28;20021;-45
2023/08/14 01:56:30;;;;;;;6.35;3.53;;;;;;;;;;5050777;28;20036;-46
2023/08/14 01:58:55;;;;;;;10.57;4.63;;;;;;;;;;5058083;28;20033;-46
2023/08/14 02:01:20;;;;;;;8.97;4.70;;;;;;;;;;5058265;28;20282;-45
2023/08/14 02:03:46;;;;;;;12.03;4.57;;;;;;;;;;5058228;28;20293;-45
2023/08/14 02:06:11;;;;;;;7.70;4.10;;;;;;;;;;5052366;28;20695;-46
2023/08/14 02:08:36;;;;;;;8.87;4.40;;;;;;;;;;5054714;28;20093;-46
2023/08/14 02:11:08;;;;;;;8.67;4.20;;;;;;;;;;5050760;28;20788;-45
2023/08/14 02:13:33;;;;;;;9.07;3.83;;;;;;;;;;5059504;28;20817;-45
2023/08/14 02:15:59;;;;;;;9.52;3.97;;;;;;;;;;5051059;28;20025;-45
2023/08/14 02:18:24;;;;;;;9.43;4.43;;;;;;;;;;5055451;28;20439;-45
2023/08/14 02:20:49;;;;;;;8.77;3.37;;;;;;;;;;5062279;28;20036;-45
2023/08/14 02:23:15;;;;;;;8.90;3.83;;;;;;;;;;5060366;28;20028;-45
2023/08/14 02:25:41;;;;;;;8.63;3.67;;;;;;;;;;5056603;28;20270;-45
2023/08/14 02:28:07;;;;;;;10.63;4.25;;;;;;;;;;5056738;28;20028;-45
2023/08/14 02:30:34;;;;;;;7.38;3.97;;;;;;;;;;5059921;28;20028;-45
2023/08/14 02:32:59;;;;;;;15.63;4.38;;;;;;;;;;5050100;28;20035;-45
2023/08/14 02:35:24;;;;;;;7.10;4.00;;;;;;;;;;5059650;28;20025;-45
2023/08/14 02:37:50;;;;;;;10.33;4.30;;;;;;;;;;5063150;28;20108;-45
2023/08/14 02:40:15;;;;;;;10.27;4.27;;;;;;;;;;5065786;28;20289;-45
2023/08/14 02:42:40;;;;;;;6.83;4.13;;;;;;;;;;5065467;28;20570;-45
2023/08/14 02:45:06;;;;;;;10.80;4.90;;;;;;;;;;5060313;28;20047;-45
2023/08/14 02:47:31;;;;;;;8.65;2.40;;;;;;;;;;5057873;28;20041;-45
2023/08/14 02:49:56;;;;;;;11.52;3.85;;;;;;;;;;5053283;28;20028;-45
2023/08/14 02:52:22;;;;;;;11.27;4.83;;;;;;;;;;5061834;28;20040;-45
2023/08/14 02:54:47;;;;;;;9.23;4.13;;;;;;;;;;5060598;28;20017;-45
2023/08/14 02:57:12;;;;;;;9.90;4.13;;;;;;;;;;5060006;28;20518;-45
2023/08/14 02:59:37;;;;;;;9.10;3.90;;;;;;;;;;5057754;28;20033;-45
2023/08/14 03:02:03;;;;;;;11.00;4.38;;;;;;;;;;5055278;28;20032;-45
2023/08/14 03:04:29;;;;;;;15.27;5.20;;;;;;;;;;5061691;28;20019;-45
2023/08/14 03:06:55;;;;;;;8.23;4.65;;;;;;;;;;5052950;28;20263;-45
2023/08/14 03:09:20;;;;;;;10.85;3.95;;;;;;;;;;5062341;28;20021;-45
2023/08/14 03:11:45;;;;;;;7.47;3.90;;;;;;;;;;5060198;28;20032;-45
2023/08/14 03:14:10;;;;;;;11.30;4.50;;;;;;;;;;5058026;28;20100;-45
2023/08/14 03:16:36;;;;;;;9.40;4.97;;;;;;;;;;5060861;28;20395;-45
2023/08/14 03:19:01;;;;;;;6.50;3.07;;;;;;;;;;5060945;28;20033;-45
2023/08/14 03:21:27;;;;;;;11.20;4.10;;;;;;;;;;5058754;28;20376;-45
2023/08/14 03:23:52;;;;;;;10.87;4.33;;;;;;;;;;5052403;28;20028;-45
2023/08/14 03:26:17;;;;;;;12.07;5.77;;;;;;;;;;5053904;28;20275;-45
2023/08/14 03:28:43;;;;;;;8.87;5.73;;;;;;;;;;5051212;28;20052;-45
2023/08/14 03:31:08;;;;;;;12.65;5.30;;;;;;;;;;5060565;28;20275;-45
2023/08/14 03:33:33;;;;;;;10.60;4.78;;;;;;;;;;5059301;28;20025;-45
2023/08/14 03:35:59;;;;;;;9.33;4.40;;;;;;;;;;5056933;28;20036;-45
2023/08/14 03:38:24;;;;;;;15.33;8.10;;;;;;;;;;5060600;28;20065;-45
2023/08/14 03:40:49;;;;;;;9.45;4.15;;;;;;;;;;5056532;28;20549;-45
2023/08/14 03:43:14;;;;;;;11.90;4.60;;;;;;;;;;5061177;28;20367;-45
2023/08/14 03:45:40;;;;;;;6.50;4.03;;;;;;;;;;5053353;28;20021;-45
2023/08/14 03:48:05;;;;;;;9.60;3.77;;;;;;;;;;5060294;28;20143;-45
2023/08/14 03:50:30;;;;;;;9.13;3.92;;;;;;;;;;5061092;28;20032;-45
2023/08/14 03:52:56;;;;;;;12.70;5.07;;;;;;;;;;5061744;28;20025;-45
2023/08/14 03:55:21;;;;;;;21.40;13.82;;;;;;;;;;5055801;28;20071;-45
2023/08/14 03:57:46;;;;;;;38.58;21.75;;;;;;;;;;5052737;28;20021;-45
2023/08/14 04:00:13;;;;;;;29.77;16.65;;;;;;;;;;5047073;28;20032;-45
2023/08/14 04:02:38;;;;;;;22.73;7.95;;;;;;;;;;5054653;28;20016;-45
2023/08/14 04:05:04;;;;;;;8.23;4.38;;;;;;;;;;5060867;28;20086;-45
2023/08/14 04:07:30;;;;;;;7.25;4.90;;;;;;;;;;5061119;28;20150;-45
2023/08/14 04:09:55;;;;;;;13.17;5.37;;;;;;;;;;5064174;28;20028;-45
2023/08/14 04:12:20;;;;;;;9.73;4.67;;;;;;;;;;5055215;28;20589;-45
2023/08/14 04:14:48;;;;;;;15.75;4.78;;;;;;;;;;5046585;28;20051;-45
2023/08/14 04:17:13;;;;;;;79.03;42.05;;;;;;;;;;5057878;28;20029;-45
2023/08/14 04:19:38;;;;;;;6.10;3.97;;;;;;;;;;5057664;28;20029;-45
2023/08/14 04:22:04;;;;;;;8.60;4.60;;;;;;;;;;5059759;28;20028;-45
2023/08/14 04:24:29;;;;;;;9.67;5.00;;;;;;;;;;5058325;28;20108;-45
2023/08/14 04:26:55;;;;;;;11.07;5.57;;;;;;;;;;5059755;28;20078;-45
2023/08/14 04:29:20;;;;;;;8.00;5.05;;;;;;;;;;5062010;28;20033;-45
2023/08/14 04:31:45;;;;;;;9.30;4.50;;;;;;;;;;5050556;28;20460;-45
2023/08/14 04:34:11;;;;;;;10.05;4.70;;;;;;;;;;5056973;28;20686;-45
2023/08/14 04:36:36;;;;;;;8.13;4.13;;;;;;;;;;5066588;28;20029;-45
2023/08/14 04:39:03;;;;;;;13.80;4.40;;;;;;;;;;5054971;28;20605;-45
2023/08/14 04:41:29;;;;;;;12.57;4.78;;;;;;;;;;5055649;28;20032;-45
2023/08/14 04:43:54;;;;;;;7.60;3.80;;;;;;;;;;5060369;28;20039;-45
2023/08/14 04:46:36;;;;;;;10.00;3.75;;;;;;;;;;5038415;28;20040;-45
2023/08/14 04:49:02;;;;;;;11.18;3.80;;;;;;;;;;5055649;28;20066;-45
2023/08/14 04:51:28;;;;;;;20.00;10.98;;;;;;;;;;5055266;28;20036;-45
2023/08/14 04:53:54;;;;;;;124.72;69.20;;;;;;;;;;5053418;28;20025;-45
2023/08/14 04:56:19;;;;;;;10.73;4.30;;;;;;;;;;5064839;28;20020;-45
2023/08/14 04:58:45;;;;;;;8.40;3.97;;;;;;;;;;5061348;28;20032;-45
2023/08/14 05:01:10;;;;;;;7.97;3.47;;;;;;;;;;5060325;28;20626;-45
2023/08/14 05:03:35;;;;;;;7.88;4.40;;;;;;;;;;5059924;28;20491;-45
2023/08/14 05:06:01;;;;;;;10.60;5.43;;;;;;;;;;5065814;28;20020;-45
2023/08/14 05:08:26;;;;;;;9.60;4.20;;;;;;;;;;5051796;28;20044;-45
2023/08/14 05:10:52;;;;;;;8.40;4.10;;;;;;;;;;5066651;28;20675;-45
2023/08/14 05:13:18;;;;;;;9.88;4.30;;;;;;;;;;5062053;28;20039;-45
2023/08/14 05:15:45;;;;;;;9.18;4.35;;;;;;;;;;5057324;28;20052;-45
2023/08/14 05:18:10;;;;;;;7.57;4.30;;;;;;;;;;5063158;28;20020;-45
2023/08/14 05:20:36;;;;;;;8.53;3.97;;;;;;;;;;5056739;28;20052;-45
2023/08/14 05:23:01;;;;;;;162.18;89.57;;;;;;;;;;5064679;28;20020;-45
2023/08/14 05:25:26;;;;;;;344.93;197.63;;;;;;;;;;5063504;28;20032;-45
2023/08/14 05:27:52;;;;;;;349.20;201.27;;;;;;;;;;5059023;28;20823;-45
2023/08/14 05:30:17;;;;;;;365.73;209.40;;;;;;;;;;5060876;28;20047;-45
2023/08/14 05:32:46;;;;;;;189.40;107.25;;;;;;;;;;5052013;28;20278;-45
2023/08/14 05:35:11;;;;;;;400.15;224.20;;;;;;;;;;5055667;28;20024;-45
2023/08/14 05:37:36;;;;;;;394.57;224.13;;;;;;;;;;5060982;28;20115;-45
2023/08/14 05:40:02;;;;;;;402.27;227.83;;;;;;;;;;5066057;28;20485;-45
2023/08/14 05:42:27;;;;;;;435.33;239.70;;;;;;;;;;5062843;28;20032;-46
2023/08/14 05:44:52;;;;;;;459.93;253.60;;;;;;;;;;5062481;28;20111;-45
2023/08/14 05:47:18;;;;;;;465.58;257.88;;;;;;;;;;5040823;28;20059;-45
2023/08/14 05:49:43;;;;;;;471.50;260.67;;;;;;;;;;5062855;28;20028;-45
2023/08/14 05:52:08;;;;;;;469.27;258.37;;;;;;;;;;5063504;28;20565;-45
2023/08/14 05:54:34;;;;;;;476.08;261.50;;;;;;;;;;5056372;28;20365;-45
2023/08/14 05:56:59;;;;;;;473.43;259.77;;;;;;;;;;5062396;28;20024;-45
2023/08/14 05:59:24;;;;;;;294.90;161.10;;;;;;;;;;5044030;28;20303;-45
2023/08/14 06:01:49;;;;;;;482.45;263.58;;;;;;;;;;5051820;28;21690;-45
2023/08/14 06:04:15;;;;;;;485.43;264.83;;;;;;;;;;5056226;28;20025;-45
2023/08/14 06:06:40;;;;;;;484.33;263.77;;;;;;;;;;5029318;28;20027;-45
2023/08/14 06:09:06;;;;;;;484.50;262.90;;;;;;;;;;5048376;28;20542;-45
2023/08/14 06:11:31;;;;;;;476.70;265.48;;;;;;;;;;5056369;28;20287;-45
2023/08/14 06:13:57;;;;;;;489.20;268.00;;;;;;;;;;5062261;28;20089;-45
2023/08/14 06:16:22;;;;;;;483.37;264.73;;;;;;;;;;5063710;28;20421;-45
2023/08/14 06:18:48;;;;;;;515.77;275.17;;;;;;;;;;5051239;28;20051;-45
2023/08/14 06:21:13;;;;;;;514.55;278.38;;;;;;;;;;5059454;28;20668;-45
2023/08/14 06:23:38;;;;;;;407.92;220.25;;;;;;;;;;5058544;28;20406;-45
2023/08/14 06:26:04;;;;;;;467.57;251.63;;;;;;;;;;5057289;28;20052;-45
2023/08/14 06:28:29;;;;;;;500.43;272.47;;;;;;;;;;5049276;28;20029;-45
2023/08/14 06:30:59;;;;;;;502.25;273.55;;;;;;;;;;5053836;28;20271;-45
2023/08/14 06:33:24;;;;;;;498.60;271.10;;;;;;;;;;5051501;28;20031;-45
2023/08/14 06:35:49;;;;;;;494.80;268.60;;;;;;;;;;5044149;28;20033;-45
2023/08/14 06:38:15;;;;;;;487.65;266.33;;;;;;;;;;5058266;28;20139;-45
2023/08/14 06:40:40;;;;;;;505.27;273.53;;;;;;;;;;5054689;28;20039;-45
2023/08/14 06:43:06;;;;;;;486.80;264.53;;;;;;;;;;5054809;28;20032;-45
2023/08/14 06:45:31;;;;;;;488.95;266.15;;;;;;;;;;5044899;28;20036;-45
2023/08/14 06:47:56;;;;;;;486.83;265.00;;;;;;;;;;5059948;28;20594;-45
2023/08/14 06:50:23;;;;;;;465.03;254.93;;;;;;;;;;5062657;28;20357;-45
2023/08/14 06:52:48;;;;;;;473.95;257.00;;;;;;;;;;5059014;28;20100;-45
2023/08/14 06:55:13;;;;;;;472.98;255.20;;;;;;;;;;5062204;28;20116;-45
2023/08/14 06:57:39;;;;;;;485.98;264.33;;;;;;;;;;5043122;28;20112;-45
2023/08/14 07:00:11;;;;;;;516.47;277.20;;;;;;;;;;5060578;28;20403;-45
2023/08/14 07:02:37;;;;;;;510.80;276.00;;;;;;;;;;5056116;28;21045;-45
2023/08/14 07:05:02;;;;;;;509.67;273.87;;;;;;;;;;5060433;28;20032;-45
2023/08/14 07:07:27;;;;;;;513.92;276.90;;;;;;;;;;5063524;28;20028;-45
2023/08/14 07:09:53;;;;;;;519.70;277.55;;;;;;;;;;5066594;28;20028;-45
2023/08/14 07:12:18;;;;;;;519.30;278.50;;;;;;;;;;5060054;28;20020;-45
2023/08/14 07:14:43;;;;;;;515.83;277.70;;;;;;;;;;5056297;28;20534;-45
2023/08/14 07:17:10;;;;;;;518.93;277.97;;;;;;;;;;5059664;28;20496;-45
2023/08/14 07:19:35;;;;;;;524.88;281.35;;;;;;;;;;5061266;28;20279;-45
2023/08/14 07:22:01;;;;;;;523.60;280.50;;;;;;;;;;5043185;28;20537;-45
2023/08/14 07:24:26;;;;;;;519.73;277.53;;;;;;;;;;5055338;28;20689;-45
2023/08/14 07:26:51;;;;;;;515.23;278.03;;;;;;;;;;5056354;28;20398;-45
2023/08/14 07:29:17;;;;;;;513.33;275.90;;;;;;;;;;5062669;28;20036;-45
2023/08/14 07:31:42;;;;;;;518.47;278.50;;;;;;;;;;5056445;28;20025;-45
2023/08/14 07:34:07;;;;;;;521.03;278.63;;;;;;;;;;5055392;28;20769;-45
2023/08/14 07:36:32;;;;;;;517.10;277.53;;;;;;;;;;5051053;28;20040;-45
2023/08/14 07:38:58;;;;;;;519.08;276.85;;;;;;;;;;5060602;28;20689;-45
2023/08/14 07:41:23;;;;;;;453.90;248.13;;;;;;;;;;5037799;28;20542;-45
2023/08/14 07:43:48;;;;;;;467.05;253.80;;;;;;;;;;5057343;28;20078;-45
2023/08/14 07:46:13;;;;;;;474.63;255.73;;;;;;;;;;5058885;28;20398;-45
2023/08/14 07:48:39;;;;;;;476.70;257.00;;;;;;;;;;5059908;28;20028;-45
2023/08/14 07:51:04;;;;;;;487.03;261.10;;;;;;;;;;5058675;28;20067;-45
2023/08/14 07:53:29;;;;;;;476.43;256.93;;;;;;;;;;5055953;28;20386;-45
2023/08/14 07:55:55;;;;;;;483.58;260.10;;;;;;;;;;5060069;28;20281;-45
2023/08/14 07:58:20;;;;;;;476.03;257.77;;;;;;;;;;5054482;28;20150;-46
2023/08/14 08:00:45;;;;;;;480.33;258.02;;;;;;;;;;5029728;28;20039;-45
2023/08/14 08:03:10;;;;;;;483.45;261.67;;;;;;;;;;5053804;28;20048;-45
2023/08/14 08:05:36;;;;;;;480.90;259.90;;;;;;;;;;5059816;28;20029;-45
2023/08/14 08:08:02;;;;;;;489.40;263.35;;;;;;;;;;5059198;28;20375;-45
2023/08/14 08:10:27;;;;;;;501.92;269.27;;;;;;;;;;5047278;28;20920;-45
2023/08/14 08:12:53;;;;;;;323.30;176.65;;;;;;;;;;5050563;28;20032;-45
2023/08/14 08:15:18;;;;;;;495.10;264.00;;;;;;;;;;5059133;28;20028;-45
2023/08/14 08:17:43;;;;;;;495.93;266.63;;;;;;;;;;5062363;28;20335;-45
2023/08/14 08:20:09;;;;;;;493.13;265.40;;;;;;;;;;5043870;28;20649;-45
2023/08/14 08:22:34;;;;;;;510.20;272.55;;;;;;;;;;5066214;28;20060;-45
2023/08/14 08:24:59;;;;;;;133.93;71.10;;;;;;;;;;5064164;28;20021;-45
2023/08/14 08:27:24;;;;;;;507.55;269.88;;;;;;;;;;5061539;28;20032;-45
2023/08/14 08:29:50;;;;;;;506.47;269.70;;;;;;;;;;5058313;28;20024;-45
2023/08/14 08:32:15;;;;;;;504.73;269.80;;;;;;;;;;5063683;28;20060;-45
2023/08/14 08:34:40;;;;;;;509.93;272.37;;;;;;;;;;5069405;28;20035;-45
2023/08/14 08:37:06;;;;;;;513.87;273.23;;;;;;;;;;5057016;28;20275;-45
2023/08/14 08:39:31;;;;;;;435.10;230.43;;;;;;;;;;5057236;28;20123;-45
2023/08/14 08:41:56;;;;;;;507.50;268.92;;;;;;;;;;5065031;28;20024;-45
2023/08/14 08:44:25;;;;;;;509.15;268.52;;;;;;;;;;5060353;28;20071;-45
2023/08/14 08:46:51;;;;;;;506.00;268.95;;;;;;;;;;5062178;28;20016;-45
2023/08/14 08:49:16;;;;;;;365.95;198.52;;;;;;;;;;5069426;28;20028;-45
2023/08/14 08:51:42;;;;;;;416.05;227.35;;;;;;;;;;5064450;28;20056;-45
2023/08/14 08:54:08;;;;;;;463.33;249.95;;;;;;;;;;5056830;28;20029;-45
2023/08/14 08:56:34;;;;;;;470.35;252.40;;;;;;;;;;5062541;28;20028;-45
2023/08/14 08:58:59;;;;;;;485.17;257.45;;;;;;;;;;5058788;28;20024;-45
2023/08/14 09:01:25;;;;;;;479.37;255.50;;;;;;;;;;5056526;28;20037;-45
2023/08/14 09:03:50;;;;;;;484.52;257.83;;;;;;;;;;5059126;28;20407;-45
2023/08/14 09:06:16;;;;;;;523.13;275.77;;;;;;;;;;5062015;28;20048;-45
2023/08/14 09:08:41;;;;;;;140.57;75.82;;;;;;;;;;5034741;28;20781;-45
2023/08/14 09:11:06;;;;;;;529.83;278.13;;;;;;;;;;5057047;28;20030;-45
2023/08/14 09:13:32;;;;;;;504.70;269.53;;;;;;;;;;5057952;28;20278;-45
2023/08/14 09:15:57;;;;;;;587.50;319.83;;;;;;;;;;5056805;28;20155;-45
2023/08/14 09:18:22;;;;;;;612.28;330.98;;;;;;;;;;5061459;28;20141;-45
2023/08/14 09:20:48;;;;;;;4.97;2.63;;;;;;;;;;5057457;28;20103;-45
2023/08/14 09:23:13;;;;;;;5.40;2.90;;;;;;;;;;5059475;28;20995;-45
2023/08/14 09:25:42;;;;;;;178.40;82.60;;;;;;;;;;5061244;28;20412;-45
2023/08/14 09:28:10;;;;;;;566.85;301.58;;;;;;;;;;5061985;28;20136;-45
2023/08/14 09:30:37;;;;;;;230.57;124.07;;;;;;;;;;5054940;28;20021;-45
2023/08/14 09:33:05;;;;;;;346.17;179.05;;;;;;;;;;5064719;28;20696;-45
2023/08/14 09:35:31;;;;;;;695.45;369.58;;;;;;;;;;5051836;28;20020;-45
2023/08/14 09:37:58;;;;;;;716.47;374.40;;;;;;;;;;5049158;28;20498;-45
2023/08/14 09:40:23;;;;;;;832.22;459.13;;;;;;;;;;5062595;28;20286;-46
2023/08/14 09:42:49;;;;;;;5.13;1.90;;;;;;;;;;5061591;28;20428;-45
2023/08/14 09:45:15;;;;;;;3.67;2.22;;;;;;;;;;5058877;28;20021;-45
2023/08/14 09:47:41;;;;;;;8.50;1.92;;;;;;;;;;5058994;28;20438;-46
2023/08/14 09:50:07;;;;;;;7.13;2.17;;;;;;;;;;5044623;28;20495;-45
2023/08/14 09:52:33;;;;;;;4.93;2.30;;;;;;;;;;5053603;28;20059;-46
2023/08/14 09:54:59;;;;;;;6.10;2.42;;;;;;;;;;5058792;28;20029;-45
2023/08/14 09:57:24;;;;;;;5.28;2.03;;;;;;;;;;5059999;28;20115;-45
2023/08/14 09:59:50;;;;;;;4.13;2.70;;;;;;;;;;5058029;28;20032;-45
2023/08/14 10:02:16;;;;;;;5.72;2.28;;;;;;;;;;5063786;28;20121;-45
2023/08/14 10:04:45;;;;;;;6.97;2.03;;;;;;;;;;5056609;28;20941;-45
2023/08/14 10:07:11;;;;;;;4.75;1.73;;;;;;;;;;5053367;28;20051;-46
2023/08/14 10:09:38;;;;;;;7.20;2.60;;;;;;;;;;5046288;28;20475;-45
2023/08/14 10:12:06;;;;;;;902.15;482.63;;;;;;;;;;5049196;28;21016;-45
2023/08/14 10:14:33;;;;;;;6.93;2.17;;;;;;;;;;5044026;28;20047;-45
2023/08/14 10:17:00;;;;;;;5.47;2.47;;;;;;;;;;5050515;28;20077;-45
2023/08/14 10:19:27;;;;;;;6.72;2.05;;;;;;;;;;5053587;28;20032;-46
2023/08/14 10:21:53;;;;;;;716.78;391.63;;;;;;;;;;5044550;28;20998;-46
2023/08/14 10:24:19;;;;;;;7.72;2.30;;;;;;;;;;5050120;28;20037;-45
2023/08/14 10:26:44;;;;;;;3.35;1.63;;;;;;;;;;5052564;28;20021;-45
2023/08/14 10:29:10;;;;;;;4.00;2.13;;;;;;;;;;5048586;28;20020;-45
2023/08/14 10:31:35;;;;;;;4.72;2.10;;;;;;;;;;5053624;28;20074;-45
2023/08/14 10:34:01;;;;;;;3.58;1.80;;;;;;;;;;5052850;28;20017;-45
2023/08/14 10:36:27;;;;;;;6.03;2.75;;;;;;;;;;5053973;28;20028;-46
2023/08/14 10:38:52;;;;;;;5.70;2.25;;;;;;;;;;5056612;28;20094;-45
2023/08/14 10:41:18;;;;;;;5.17;1.90;;;;;;;;;;5054601;28;20083;-45
2023/08/14 10:43:48;;;;;;;7.22;2.47;;;;;;;;;;5056957;28;20367;-45
2023/08/14 10:46:16;;;;;;;748.95;404.92;;;;;;;;;;5053575;28;20104;-45
2023/08/14 10:48:42;;;;;;;863.08;468.73;;;;;;;;;;5053233;28;20091;-45
2023/08/14 10:51:08;;;;;;;412.27;219.23;;;;;;;;;;5036520;28;20084;-45
2023/08/14 10:53:34;;;;;;;480.92;267.25;;;;;;;;;;5052672;28;20042;-45
2023/08/14 10:56:00;;;;;;;1066.82;538.75;;;;;;;;;;5055040;28;20292;-45
2023/08/14 10:58:28;;;;;;;1374.60;428.85;;;;;;;;;;5056780;28;20559;-45
2023/08/14 11:00:53;;;;;;;2.95;1.60;;;;;;;;;;5052655;28;20402;-45
2023/08/14 11:03:19;;;;;;;1367.80;498.77;;;;;;;;;;5036152;28;20553;-45
2023/08/14 11:05:44;;;;;;;875.27;303.60;;;;;;;;;;5051679;28;20241;-45
2023/08/14 11:08:11;;;;;;;6.20;1.97;;;;;;;;;;5056478;28;21291;-45
2023/08/14 11:10:36;;;;;;;8.43;2.08;;;;;;;;;;5057723;28;20673;-45
2023/08/14 11:13:02;;;;;;;3.97;1.75;;;;;;;;;;5053820;28;20024;-45
2023/08/14 11:15:33;;;;;;;3.90;1.48;;;;;;;;;;5051426;28;20043;-46
2023/08/14 11:17:58;;;;;;;3.83;2.10;;;;;;;;;;5055529;28;20134;-45
2023/08/14 11:20:27;;;;;;;7.82;2.17;;;;;;;;;;5053530;28;20107;-45
2023/08/14 11:22:53;;;;;;;3.97;1.63;;;;;;;;;;5054638;28;20039;-45
2023/08/14 11:25:19;;;;;;;3.28;1.52;;;;;;;;;;5055356;28;20024;-45
2023/08/14 11:27:51;;;;;;;5.97;1.95;;;;;;;;;;5057018;28;20139;-45
2023/08/14 11:30:17;;;;;;;3.15;2.00;;;;;;;;;;5054346;28;20024;-46
2023/08/14 11:32:42;;;;;;;3.75;1.58;;;;;;;;;;5051666;28;20036;-45
2023/08/14 11:35:08;;;;;;;5.67;1.87;;;;;;;;;;5055872;28;20597;-45
2023/08/14 11:37:33;;;;;;;5.28;1.80;;;;;;;;;;5055841;28;20033;-46
2023/08/14 11:40:04;;;;;;;6.80;2.38;;;;;;;;;;5053557;28;20041;-45
2023/08/14 11:42:29;;;;;;;5.60;2.00;;;;;;;;;;5056529;28;20033;-45
2023/08/14 11:44:55;;;;;;;4.70;2.17;;;;;;;;;;5056029;28;20040;-46
2023/08/14 11:47:21;;;;;;;4.57;2.23;;;;;;;;;;5062221;28;20282;-46
2023/08/14 11:49:48;;;;;;;2.97;1.98;;;;;;;;;;5057492;28;20396;-46
2023/08/14 11:52:14;;;;;;;4.95;2.35;;;;;;;;;;5059422;28;20094;-46
2023/08/14 11:54:39;;;;;;;5.97;2.38;;;;;;;;;;5055731;28;20029;-45
2023/08/14 11:57:05;;;;;;;4.78;2.05;;;;;;;;;;5059816;28;20074;-45
2023/08/14 11:59:30;;;;;;;5.85;2.45;;;;;;;;;;5058962;28;20033;-46
2023/08/14 12:01:56;;;;;;;5.65;2.25;;;;;;;;;;5060404;28;20024;-46
2023/08/14 12:04:21;;;;;;;4.80;2.13;;;;;;;;;;5058211;28;20547;-46
2023/08/14 12:06:47;;;;;;;5.87;2.60;;;;;;;;;;5057652;28;20431;-45
2023/08/14 12:09:12;;;;;;;5.30;1.60;;;;;;;;;;5059849;28;20017;-45
2023/08/14 12:11:38;;;;;;;4.27;1.93;;;;;;;;;;5063716;28;20398;-46
2023/08/14 12:14:06;;;;;;;3.22;1.85;;;;;;;;;;5052045;28;20036;-46
2023/08/14 12:16:32;;;;;;;5.63;1.80;;;;;;;;;;5051041;28;20116;-46
2023/08/14 12:18:57;;;;;;;4.57;2.13;;;;;;;;;;5055056;28;20024;-46
2023/08/14 12:21:28;;;;;;;4.20;1.70;;;;;;;;;;5053469;28;20027;-46
2023/08/14 12:23:54;;;;;;;4.05;1.77;;;;;;;;;;5050384;28;20040;-46
2023/08/14 12:26:20;;;;;;;5.15;2.15;;;;;;;;;;5058808;28;20060;-45
2023/08/14 12:28:45;;;;;;;7.53;1.77;;;;;;;;;;5058727;28;20023;-46
2023/08/14 12:31:11;;;;;;;10.52;2.28;;;;;;;;;;5058339;28;20036;-45
2023/08/14 12:33:39;;;;;;;6.15;1.85;;;;;;;;;;5058934;28;20056;-46
2023/08/14 12:36:04;;;;;;;2.80;1.70;;;;;;;;;;5058704;28;20028;-46
2023/08/14 12:38:29;;;;;;;2.70;1.10;;;;;;;;;;5056971;28;20454;-45
2023/08/14 12:40:55;;;;;;;3.10;1.63;;;;;;;;;;5054804;28;20771;-46
2023/08/14 12:43:20;;;;;;;4.43;1.95;;;;;;;;;;5055507;28;20097;-46
2023/08/14 12:45:45;;;;;;;3.70;1.70;;;;;;;;;;5054973;28;20186;-45
2023/08/14 12:48:11;;;;;;;7.77;2.20;;;;;;;;;;5055081;28;20325;-46
2023/08/14 12:50:36;;;;;;;5.40;2.10;;;;;;;;;;5057228;28;20032;-46
2023/08/14 12:53:03;;;;;;;4.63;1.77;;;;;;;;;;5058620;28;21349;-45
2023/08/14 12:55:28;;;;;;;3.30;1.83;;;;;;;;;;5059786;28;20051;-46
2023/08/14 12:57:53;;;;;;;5.35;2.28;;;;;;;;;;5060342;28;20025;-45
2023/08/14 13:00:20;;;;;;;4.13;1.97;;;;;;;;;;5057150;28;20029;-46
2023/08/14 13:02:51;;;;;;;4.95;2.20;;;;;;;;;;5057257;28;20029;-45
2023/08/14 13:05:17;;;;;;;2.75;1.88;;;;;;;;;;5056526;28;20063;-45
2023/08/14 13:07:42;;;;;;;3.33;1.70;;;;;;;;;;5055883;28;20108;-46
2023/08/14 13:10:07;;;;;;;5.83;1.97;;;;;;;;;;5057154;28;20074;-46
2023/08/14 13:12:33;;;;;;;3.65;2.05;;;;;;;;;;5060371;28;20554;-46
2023/08/14 13:14:58;;;;;;;3.72;2.10;;;;;;;;;;5061377;28;20477;-46
2023/08/14 13:17:23;;;;;;;4.23;1.87;;;;;;;;;;5061346;28;20085;-46
2023/08/14 13:19:49;;;;;;;4.75;2.25;;;;;;;;;;5053283;28;20275;-46
2023/08/14 13:22:17;;;;;;;5.45;2.33;;;;;;;;;;5047727;28;20399;-46
2023/08/14 13:24:42;;;;;;;5.22;2.38;;;;;;;;;;5050601;28;20017;-46
2023/08/14 13:27:07;;;;;;;4.95;2.60;;;;;;;;;;5050943;28;20020;-46
2023/08/14 13:29:33;;;;;;;7.90;4.10;;;;;;;;;;5052281;28;20055;-46
2023/08/14 13:31:58;;;;;;;7.70;3.07;;;;;;;;;;5054676;28;20278;-46
2023/08/14 13:34:23;;;;;;;14.17;7.20;;;;;;;;;;5053597;28;20028;-46
2023/08/14 13:36:49;;;;;;;16.07;8.70;;;;;;;;;;5053554;28;20079;-46
2023/08/14 13:39:16;;;;;;;6.40;3.93;;;;;;;;;;5059370;28;20270;-46
2023/08/14 13:41:41;;;;;;;6.03;2.90;;;;;;;;;;5056057;28;20032;-46
2023/08/14 13:44:06;;;;;;;6.50;2.47;;;;;;;;;;5059183;28;20021;-46
2023/08/14 13:46:32;;;;;;;5.60;2.40;;;;;;;;;;5057017;28;20282;-46
2023/08/14 13:48:57;;;;;;;6.97;2.13;;;;;;;;;;5056072;28;20027;-46
2023/08/14 13:51:22;;;;;;;3.47;1.83;;;;;;;;;;5056624;28;20025;-46
2023/08/14 13:53:48;;;;;;;5.53;2.00;;;;;;;;;;5055278;28;20777;-46
2023/08/14 13:56:13;;;;;;;7.90;2.20;;;;;;;;;;5055891;28;20111;-46
2023/08/14 13:58:38;;;;;;;6.00;2.13;;;;;;;;;;5057134;28;20047;-46
2023/08/14 14:01:03;;;;;;;4.80;2.13;;;;;;;;;;5052275;28;20170;-46
2023/08/14 14:03:28;;;;;;;4.43;2.17;;;;;;;;;;5054608;28;20122;-46
2023/08/14 14:05:54;;;;;;;3.80;2.00;;;;;;;;;;5054945;28;20017;-46
2023/08/14 14:08:19;;;;;;;4.87;2.03;;;;;;;;;;5056035;28;20486;-46
2023/08/14 14:10:44;;;;;;;3.70;2.30;;;;;;;;;;5050222;28;20024;-46
2023/08/14 14:13:10;;;;;;;6.50;2.50;;;;;;;;;;5050249;28;20409;-46